createdAt,value
2022-09-20T00:01:32.055Z,65.79
2022-09-20T00:04:06.752Z,65.57
2022-09-20T00:06:36.057Z,66.15
2022-09-20T00:09:05.399Z,66.29
2022-09-20T00:11:36.715Z,66.78
2022-09-20T00:14:08.599Z,66.32
2022-09-20T00:16:41.277Z,66.75
2022-09-20T00:19:17.915Z,66.33
2022-09-20T00:21:46.063Z,65.98
2022-09-20T00:24:14.538Z,66.44
2022-09-20T00:26:42.582Z,65.57
2022-09-20T00:29:12.665Z,66.39
2022-09-20T00:31:42.704Z,65.66
2022-09-20T00:34:30.201Z,65.39
2022-09-20T00:36:58.228Z,66.47
2022-09-20T00:39:26.523Z,66.21
2022-09-20T00:41:54.539Z,65.80
2022-09-20T00:44:56.493Z,66.10
2022-09-20T00:47:35.325Z,66.03
2022-09-20T00:50:25.168Z,66.11
2022-09-20T00:53:00.603Z,66.39
2022-09-20T00:55:29.827Z,66.27
2022-09-20T00:57:59.584Z,66.21
2022-09-20T01:00:28.978Z,65.91
2022-09-20T01:03:02.857Z,65.81
2022-09-20T01:05:32.654Z,66.01
2022-09-20T01:08:00.670Z,65.91
2022-09-20T01:10:28.964Z,66.20
2022-09-20T01:12:57.303Z,66.25
2022-09-20T01:15:28.714Z,66.28
2022-09-20T01:17:59.829Z,66.25
2022-09-20T01:20:32.907Z,65.56
2022-09-20T01:23:19.509Z,66.05
2022-09-20T01:26:42.669Z,66.11
2022-09-20T01:29:26.864Z,65.57
2022-09-20T01:32:00.948Z,65.54
2022-09-20T01:34:35.583Z,65.47
2022-09-20T01:37:13.221Z,65.91
2022-09-20T01:39:51.990Z,65.96
2022-09-20T01:42:24.114Z,66.19
2022-09-20T01:45:05.714Z,65.50
2022-09-20T01:47:43.334Z,65.74
2022-09-20T01:50:25.482Z,65.60
2022-09-20T01:53:27.086Z,65.92
2022-09-20T01:56:28.202Z,66.35
2022-09-20T01:59:41.758Z,67.14
2022-09-20T02:02:50.475Z,66.48
2022-09-20T02:05:54.494Z,66.01
2022-09-20T02:08:55.122Z,66.65
2022-09-20T02:11:24.463Z,66.85
2022-09-20T02:14:23.618Z,67.64
2022-09-20T02:16:56.617Z,66.97
2022-09-20T02:20:02.004Z,67.30
2022-09-20T02:23:01.337Z,67.59
2022-09-20T02:26:03.906Z,66.81
2022-09-20T02:28:53.324Z,66.56
2022-09-20T02:31:51.709Z,66.17
2022-09-20T02:34:52.306Z,65.87
2022-09-20T02:37:55.946Z,66.46
2022-09-20T02:40:47.854Z,66.01
2022-09-20T02:43:27.235Z,65.67
2022-09-20T02:46:04.967Z,65.69
2022-09-20T02:48:43.650Z,66.06
2022-09-20T02:51:24.061Z,66.86
2022-09-20T02:54:07.942Z,66.70
2022-09-20T02:56:46.421Z,67.41
2022-09-20T02:59:28.983Z,67.46
2022-09-20T03:02:09.627Z,66.62
2022-09-20T03:04:56.461Z,66.52
2022-09-20T03:07:35.519Z,66.77
2022-09-20T03:10:17.994Z,66.52
2022-09-20T03:13:01.926Z,67.51
2022-09-20T03:15:40.822Z,66.97
2022-09-20T03:18:15.743Z,66.93
2022-09-20T03:20:59.376Z,66.30
2022-09-20T03:23:48.019Z,66.31
2022-09-20T03:26:32.395Z,66.39
2022-09-20T03:29:06.349Z,65.93
2022-09-20T03:31:57.781Z,66.20
2022-09-20T03:34:45.299Z,66.27
2022-09-20T03:37:45.459Z,66.34
2022-09-20T03:40:53.007Z,66.03
2022-09-20T03:43:43.038Z,66.26
2022-09-20T03:46:19.495Z,66.00
2022-09-20T03:49:38.738Z,66.21
2022-09-20T03:52:21.988Z,66.03
2022-09-20T03:55:32.598Z,66.32
2022-09-20T03:58:24.206Z,66.76
2022-09-20T04:01:17.937Z,66.55
2022-09-20T04:03:55.271Z,66.07
2022-09-20T04:06:50.779Z,66.18
2022-09-20T04:09:54.028Z,66.31
2022-09-20T04:12:33.933Z,66.89
2022-09-20T04:15:20.808Z,67.04
2022-09-20T04:18:00.741Z,67.66
2022-09-20T04:20:38.572Z,67.10
2022-09-20T04:23:21.493Z,66.81
2022-09-20T04:25:52.195Z,66.96
2022-09-20T04:28:27.945Z,66.75
2022-09-20T04:31:04.791Z,67.28
2022-09-20T04:33:40.953Z,67.50
2022-09-20T04:36:29.358Z,67.41
2022-09-20T04:39:12.603Z,67.53
2022-09-20T04:42:33.942Z,67.61
2022-09-20T04:45:37.140Z,67.82
2022-09-20T04:49:00.916Z,67.36
2022-09-20T04:52:04.952Z,67.98
2022-09-20T04:55:14.669Z,67.60
2022-09-20T04:58:36.885Z,68.19
2022-09-20T05:02:12.408Z,68.30
2022-09-20T05:05:26.851Z,67.91
2022-09-20T05:08:41.296Z,67.83
2022-09-20T05:11:48.669Z,67.90
2022-09-20T05:14:50.466Z,67.50
2022-09-20T05:17:59.936Z,68.12
2022-09-20T05:21:01.488Z,66.77
2022-09-20T05:24:13.164Z,67.22
2022-09-20T05:26:59.288Z,67.58
2022-09-20T05:29:37.136Z,67.65
2022-09-20T05:32:13.437Z,67.78
2022-09-20T05:34:51.030Z,67.77
2022-09-20T05:37:33.502Z,66.94
2022-09-20T05:40:13.611Z,67.00
2022-09-20T05:42:51.573Z,67.74
2022-09-20T05:45:47.992Z,68.03
2022-09-20T05:48:23.989Z,68.64
2022-09-20T05:51:03.541Z,68.06
2022-09-20T05:54:13.871Z,68.17
2022-09-20T05:56:50.816Z,68.00
2022-09-20T05:59:31.638Z,68.32
2022-09-20T06:02:18.350Z,68.45
2022-09-20T06:04:58.927Z,69.34
2022-09-20T06:07:41.947Z,68.92
2022-09-20T06:11:11.878Z,68.92
2022-09-20T06:14:03.732Z,69.39
2022-09-20T06:16:44.118Z,69.30
2022-09-20T06:19:24.815Z,69.19
2022-09-20T06:21:57.603Z,69.67
2022-09-20T06:24:37.565Z,69.55
2022-09-20T06:27:15.769Z,69.54
2022-09-20T06:29:53.562Z,69.65
2022-09-20T06:32:21.594Z,70.51
2022-09-20T06:34:50.988Z,70.77
2022-09-20T06:37:54.249Z,70.57
2022-09-20T06:40:52.270Z,70.22
2022-09-20T06:43:21.807Z,70.73
2022-09-20T06:45:50.123Z,71.07
2022-09-20T06:48:19.254Z,70.85
2022-09-20T06:50:47.555Z,71.43
2022-09-20T06:53:25.127Z,71.89
2022-09-20T06:55:53.574Z,72.29
2022-09-20T06:58:24.865Z,72.12
2022-09-20T07:00:53.456Z,71.58
2022-09-20T07:03:21.628Z,71.91
2022-09-20T07:05:50.519Z,71.17
2022-09-20T07:08:18.724Z,71.12
2022-09-20T07:10:47.025Z,71.32
2022-09-20T07:13:15.169Z,71.62
2022-09-20T07:15:44.708Z,70.95
2022-09-20T07:18:13.008Z,69.66
2022-09-20T07:20:41.747Z,70.29
2022-09-20T07:23:10.111Z,70.73
2022-09-20T07:25:38.582Z,69.56
2022-09-20T07:28:07.398Z,69.52
2022-09-20T07:30:35.413Z,69.99
2022-09-20T07:33:04.883Z,68.95
2022-09-20T07:35:32.881Z,68.96
2022-09-20T07:38:01.873Z,68.73
2022-09-20T07:40:30.466Z,67.83
2022-09-20T07:42:58.669Z,66.86
2022-09-20T07:45:27.022Z,66.62
2022-09-20T07:47:55.340Z,66.55
2022-09-20T07:50:24.831Z,66.45
2022-09-20T07:52:53.154Z,66.80
2022-09-20T07:55:21.302Z,65.98
2022-09-20T07:57:49.613Z,66.72
2022-09-20T08:00:18.086Z,66.69
2022-09-20T08:02:46.111Z,66.76
2022-09-20T08:05:14.117Z,66.89
2022-09-20T08:07:43.494Z,66.94
2022-09-20T08:10:12.031Z,66.04
2022-09-20T08:15:29.216Z,64.21
2022-09-20T08:17:57.464Z,63.78
2022-09-20T08:20:25.616Z,64.31
2022-09-20T08:23:19.337Z,65.39
2022-09-20T08:25:44.148Z,64.38
2022-09-20T08:28:12.324Z,64.11
2022-09-20T08:30:40.708Z,63.88
2022-09-20T08:33:09.248Z,63.43
2022-09-20T08:35:38.699Z,62.10
2022-09-20T08:41:01.992Z,61.93
2022-09-20T08:43:37.779Z,61.57
2022-09-20T08:46:11.242Z,61.45
2022-09-20T08:48:39.595Z,60.80
2022-09-20T08:51:11.016Z,59.72
2022-09-20T08:53:49.272Z,59.72
2022-09-20T08:56:18.974Z,60.25
2022-09-20T08:58:47.528Z,60.55
2022-09-20T09:01:23.031Z,60.08
2022-09-20T09:03:52.611Z,59.33
2022-09-20T09:06:24.683Z,59.17
2022-09-20T09:08:56.783Z,59.22
2022-09-20T09:11:25.069Z,57.58
2022-09-20T09:13:58.165Z,57.98
2022-09-20T09:16:35.322Z,58.13
2022-09-20T09:19:33.293Z,57.71
2022-09-20T09:22:04.068Z,56.36
2022-09-20T09:24:33.949Z,56.74
2022-09-20T09:27:16.301Z,56.08
2022-09-20T09:29:51.980Z,56.47
2022-09-20T09:32:28.510Z,55.67
2022-09-20T09:34:57.406Z,56.08
2022-09-20T09:37:30.512Z,56.39
2022-09-20T09:40:16.388Z,55.20
2022-09-20T09:42:53.295Z,55.46
2022-09-20T09:45:38.475Z,54.95
2022-09-20T09:48:23.652Z,55.57
2022-09-20T09:51:07.361Z,55.29
2022-09-20T09:53:36.650Z,55.06
2022-09-20T09:56:48.434Z,55.37
2022-09-20T09:59:40.209Z,56.17
2022-09-20T10:02:42.977Z,55.43
2022-09-20T10:05:20.138Z,55.10
2022-09-20T10:07:56.454Z,55.79
2022-09-20T10:10:34.234Z,55.47
2022-09-20T10:13:19.903Z,55.50
2022-09-20T10:15:57.403Z,55.27
2022-09-20T10:18:44.517Z,55.35
2022-09-20T10:21:41.905Z,55.14
2022-09-20T10:24:31.818Z,54.84
2022-09-20T10:27:35.024Z,54.68
2022-09-20T10:30:14.423Z,54.61
2022-09-20T10:33:02.823Z,53.71
2022-09-20T10:35:46.846Z,55.07
2022-09-20T10:38:19.742Z,54.40
2022-09-20T10:41:45.410Z,54.62
2022-09-20T10:44:40.168Z,53.75
2022-09-20T10:47:18.123Z,55.13
2022-09-20T10:49:57.750Z,54.06
2022-09-20T10:52:42.864Z,54.83
2022-09-20T10:55:26.206Z,54.41
2022-09-20T10:58:45.897Z,53.29
2022-09-20T11:01:23.829Z,53.96
2022-09-20T11:04:18.310Z,54.12
2022-09-20T11:06:56.101Z,52.93
2022-09-20T11:09:30.862Z,53.04
2022-09-20T11:12:12.420Z,54.10
2022-09-20T11:14:45.037Z,54.08
2022-09-20T11:17:19.582Z,53.96
2022-09-20T11:20:06.188Z,54.31
2022-09-20T11:22:41.884Z,54.15
2022-09-20T11:25:20.899Z,54.29
2022-09-20T11:27:56.604Z,53.83
2022-09-20T11:30:25.812Z,53.16
2022-09-20T11:33:01.513Z,53.72
2022-09-20T11:35:36.969Z,54.18
2022-09-20T11:38:14.858Z,53.90
2022-09-20T11:40:49.940Z,54.54
2022-09-20T11:43:20.960Z,54.58
2022-09-20T11:45:56.585Z,54.50
2022-09-20T11:48:29.612Z,53.95
2022-09-20T11:51:49.536Z,56.10
2022-09-20T11:54:42.200Z,55.66
2022-09-20T11:57:15.759Z,55.16
2022-09-20T11:59:51.097Z,53.50
2022-09-20T12:02:24.749Z,53.34
2022-09-20T12:04:53.877Z,54.80
2022-09-20T12:07:28.153Z,53.58
2022-09-20T12:10:01.208Z,52.52
2022-09-20T12:12:37.523Z,51.55
2022-09-20T12:15:22.791Z,51.73
2022-09-20T12:18:28.602Z,51.11
2022-09-20T12:21:04.464Z,49.17
2022-09-20T12:24:19.134Z,49.49
2022-09-20T12:26:49.578Z,49.58
2022-09-20T12:30:15.988Z,51.67
2022-09-20T12:32:57.371Z,52.25
2022-09-20T12:36:16.826Z,50.92
2022-09-20T12:38:59.977Z,50.56
2022-09-20T12:41:29.268Z,51.37
2022-09-20T12:44:06.586Z,51.70
2022-09-20T12:46:43.546Z,49.60
2022-09-20T12:49:44.006Z,46.05
2022-09-20T12:52:58.008Z,44.79
2022-09-20T12:55:36.727Z,46.03
2022-09-20T12:58:11.633Z,46.28
2022-09-20T13:00:45.245Z,45.75
2022-09-20T13:03:28.379Z,46.16
2022-09-20T13:06:26.485Z,46.59
2022-09-20T13:09:05.598Z,47.48
2022-09-20T13:11:42.705Z,47.71
2022-09-20T13:14:15.401Z,47.93
2022-09-20T13:16:53.372Z,47.05
2022-09-20T13:19:25.858Z,45.87
2022-09-20T13:22:02.478Z,46.53
2022-09-20T13:24:35.574Z,46.11
2022-09-20T13:27:09.786Z,46.81
2022-09-20T13:29:42.260Z,46.19
2022-09-20T13:32:23.621Z,45.49
2022-09-20T13:35:07.618Z,46.27
2022-09-20T13:37:37.560Z,46.97
2022-09-20T13:40:10.026Z,46.53
2022-09-20T13:42:39.422Z,47.32
2022-09-20T13:45:15.064Z,47.06
2022-09-20T13:47:45.061Z,47.83
2022-09-20T13:50:22.573Z,50.09
2022-09-20T13:52:53.785Z,51.17
2022-09-20T13:55:35.929Z,51.78
2022-09-20T13:58:09.517Z,51.36
2022-09-20T14:00:46.064Z,52.14
2022-09-20T14:03:18.688Z,52.28
2022-09-20T14:05:49.314Z,51.43
2022-09-20T14:08:24.447Z,50.56
2022-09-20T14:11:07.284Z,50.72
2022-09-20T14:13:42.685Z,50.39
2022-09-20T14:16:12.408Z,48.40
2022-09-20T14:18:42.321Z,49.45
2022-09-20T14:21:12.363Z,50.41
2022-09-20T14:23:52.507Z,50.27
2022-09-20T14:26:27.682Z,49.98
2022-09-20T14:28:57.306Z,50.22
2022-09-20T14:31:29.780Z,49.72
2022-09-20T14:34:00.731Z,49.79
2022-09-20T14:36:31.997Z,50.81
2022-09-20T14:39:06.559Z,51.03
2022-09-20T14:41:38.293Z,51.39
2022-09-20T14:44:24.010Z,52.01
2022-09-20T14:46:52.911Z,50.90
2022-09-20T14:49:31.677Z,50.80
2022-09-20T14:52:36.644Z,50.01
2022-09-20T14:55:28.235Z,49.41
2022-09-20T14:58:03.172Z,50.15
2022-09-20T15:00:50.522Z,49.43
2022-09-20T15:03:27.580Z,49.97
2022-09-20T15:05:56.030Z,49.22
2022-09-20T15:08:24.627Z,48.94
2022-09-20T15:10:52.814Z,48.64
2022-09-20T15:13:20.813Z,49.73
2022-09-20T15:15:53.628Z,49.53
2022-09-20T15:18:25.273Z,49.85
2022-09-20T15:20:55.319Z,49.77
2022-09-20T15:23:23.874Z,48.92
2022-09-20T15:25:54.367Z,49.54
2022-09-20T15:28:23.030Z,49.65
2022-09-20T15:30:53.522Z,48.75
2022-09-20T15:33:22.637Z,47.92
2022-09-20T15:35:51.227Z,48.61
2022-09-20T15:38:20.938Z,49.03
2022-09-20T15:40:50.365Z,48.80
2022-09-20T15:43:21.894Z,48.87
2022-09-20T15:45:54.267Z,49.27
2022-09-20T15:48:25.220Z,49.43
2022-09-20T15:51:04.471Z,48.90
2022-09-20T15:53:35.372Z,49.05
2022-09-20T15:56:05.878Z,49.88
2022-09-20T15:58:36.517Z,48.80
2022-09-20T16:01:08.811Z,49.38
2022-09-20T16:03:37.631Z,49.36
2022-09-20T16:06:08.375Z,49.25
2022-09-20T16:08:40.137Z,49.57
2022-09-20T16:11:10.958Z,50.50
2022-09-20T16:13:39.577Z,50.65
2022-09-20T16:16:14.053Z,51.07
2022-09-20T16:19:00.508Z,51.42
2022-09-20T16:21:29.053Z,51.13
2022-09-20T16:23:58.124Z,51.31
2022-09-20T16:26:29.146Z,51.62
2022-09-20T16:28:57.741Z,52.20
2022-09-20T16:31:44.820Z,51.87
2022-09-20T16:34:16.932Z,52.43
2022-09-20T16:36:45.862Z,52.29
2022-09-20T16:39:15.404Z,51.97
2022-09-20T16:41:45.348Z,53.12
2022-09-20T16:44:13.901Z,52.74
2022-09-20T16:46:44.464Z,52.61
2022-09-20T16:49:14.132Z,52.94
2022-09-20T16:51:44.073Z,53.50
2022-09-20T16:54:14.218Z,53.78
2022-09-20T16:56:45.285Z,52.81
2022-09-20T16:59:15.722Z,52.85
2022-09-20T17:01:46.044Z,53.19
2022-09-20T17:04:14.916Z,53.25
2022-09-20T17:06:44.147Z,54.03
2022-09-20T17:09:12.611Z,55.01
2022-09-20T17:11:44.584Z,54.94
2022-09-20T17:14:13.869Z,55.47
2022-09-20T17:16:47.463Z,55.32
2022-09-20T17:19:18.319Z,55.81
2022-09-20T17:21:50.243Z,55.46
2022-09-20T17:24:20.487Z,55.35
2022-09-20T17:26:50.415Z,55.37
2022-09-20T17:29:21.530Z,55.69
2022-09-20T17:31:55.566Z,55.97
2022-09-20T17:34:26.052Z,56.36
2022-09-20T17:36:55.273Z,57.06
2022-09-20T17:39:24.338Z,57.32
2022-09-20T17:41:53.606Z,57.17
2022-09-20T17:44:21.830Z,58.11
2022-09-20T17:46:54.236Z,58.00
2022-09-20T17:49:24.238Z,58.23
2022-09-20T17:51:54.358Z,58.63
2022-09-20T17:54:23.292Z,58.51
2022-09-20T17:56:55.550Z,58.24
2022-09-20T17:59:24.533Z,58.46
2022-09-20T18:01:55.387Z,58.31
2022-09-20T18:04:24.425Z,58.27
2022-09-20T18:06:54.881Z,58.43
2022-09-20T18:09:27.222Z,58.68
2022-09-20T18:11:57.312Z,59.22
2022-09-20T18:14:32.187Z,59.43
2022-09-20T18:17:02.091Z,59.37
2022-09-20T18:19:40.076Z,59.58
2022-09-20T18:22:08.159Z,59.88
2022-09-20T18:24:36.141Z,59.95
2022-09-20T18:27:04.859Z,60.35
2022-09-20T18:29:36.686Z,60.27
2022-09-20T18:32:08.606Z,60.48
2022-09-20T18:34:36.601Z,60.74
2022-09-20T18:37:10.020Z,61.37
2022-09-20T18:39:40.695Z,61.15
2022-09-20T18:42:09.039Z,61.44
2022-09-20T18:44:37.188Z,60.62
2022-09-20T18:47:08.057Z,61.00
2022-09-20T18:49:39.328Z,60.85
2022-09-20T18:52:09.268Z,61.01
2022-09-20T18:54:39.045Z,60.51
2022-09-20T18:57:13.494Z,61.15
2022-09-20T18:59:49.726Z,61.12
2022-09-20T19:02:49.333Z,61.04
2022-09-20T19:05:25.566Z,61.35
2022-09-20T19:08:11.902Z,60.66
2022-09-20T19:10:48.528Z,60.98
2022-09-20T19:13:32.343Z,60.70
2022-09-20T19:16:18.657Z,61.01
2022-09-20T19:19:20.947Z,61.01
2022-09-20T19:22:01.682Z,61.06
2022-09-20T19:24:47.037Z,61.48
2022-09-20T19:27:15.885Z,61.90
2022-09-20T19:29:44.973Z,61.27
2022-09-20T19:32:21.018Z,61.98
2022-09-20T19:34:55.781Z,62.06
2022-09-20T19:37:36.551Z,62.25
2022-09-20T19:40:29.841Z,62.52
2022-09-20T19:43:23.587Z,62.23
2022-09-20T19:46:03.304Z,62.82
2022-09-20T19:48:38.982Z,62.75
2022-09-20T19:51:13.903Z,62.75
2022-09-20T19:53:42.835Z,62.98
2022-09-20T19:56:25.173Z,63.13
2022-09-20T19:58:55.888Z,63.37
2022-09-20T20:01:27.395Z,63.57
2022-09-20T20:03:56.713Z,62.76
2022-09-20T20:06:34.183Z,63.30
2022-09-20T20:09:09.170Z,63.63
2022-09-20T20:11:46.986Z,63.55
2022-09-20T20:14:29.510Z,63.55
2022-09-20T20:17:11.398Z,63.59
2022-09-20T20:19:59.663Z,63.04
2022-09-20T20:23:17.960Z,63.67
2022-09-20T20:25:59.894Z,63.23
2022-09-20T20:28:28.074Z,62.91
2022-09-20T20:30:59.777Z,63.15
2022-09-20T20:33:31.855Z,62.67
2022-09-20T20:36:06.058Z,62.58
2022-09-20T20:38:37.714Z,62.81
2022-09-20T20:41:08.575Z,62.63
2022-09-20T20:43:38.840Z,62.58
2022-09-20T20:46:14.809Z,62.86
2022-09-20T20:48:43.214Z,62.76
2022-09-20T20:51:16.171Z,63.24
2022-09-20T20:53:48.024Z,63.55
2022-09-20T20:56:19.355Z,64.25
2022-09-20T20:58:48.864Z,64.02
2022-09-20T21:01:19.574Z,64.16
2022-09-20T21:03:50.060Z,64.14
2022-09-20T21:06:18.370Z,64.62
2022-09-20T21:08:50.052Z,64.45
2022-09-20T21:11:21.816Z,64.04
2022-09-20T21:13:50.053Z,63.55
2022-09-20T21:16:20.616Z,63.83
2022-09-20T21:18:50.659Z,63.38
2022-09-20T21:21:21.724Z,63.34
2022-09-20T21:23:54.261Z,63.26
2022-09-20T21:26:24.593Z,63.46
2022-09-20T21:28:57.335Z,64.15
2022-09-20T21:31:25.945Z,63.93
2022-09-20T21:33:54.892Z,64.11
2022-09-20T21:36:26.005Z,63.49
2022-09-20T21:38:55.850Z,63.57
2022-09-20T21:41:25.963Z,63.86
2022-09-20T21:43:57.238Z,63.60
2022-09-20T21:46:28.280Z,63.23
2022-09-20T21:48:58.444Z,63.27
2022-09-20T21:51:29.738Z,63.64
2022-09-20T21:54:01.360Z,62.81
2022-09-20T21:56:32.060Z,63.74
2022-09-20T21:59:02.546Z,63.31
2022-09-20T22:01:33.879Z,63.28
2022-09-20T22:04:05.845Z,63.24
2022-09-20T22:06:35.925Z,63.54
2022-09-20T22:09:08.885Z,63.66
2022-09-20T22:11:40.819Z,63.47
2022-09-20T22:14:10.591Z,63.69
2022-09-20T22:16:40.722Z,62.90
2022-09-20T22:19:11.832Z,63.50
2022-09-20T22:21:42.903Z,62.87
2022-09-20T22:24:14.154Z,63.15
2022-09-20T22:26:44.571Z,63.76
2022-09-20T22:29:12.934Z,63.08
2022-09-20T22:31:45.345Z,62.92
2022-09-20T22:34:17.511Z,62.50
2022-09-20T22:36:46.586Z,62.50
2022-09-20T22:39:17.042Z,62.25
2022-09-20T22:41:47.684Z,62.19
2022-09-20T22:44:16.289Z,62.92
2022-09-20T22:46:44.310Z,62.75
2022-09-20T22:49:12.517Z,63.40
2022-09-20T22:51:40.618Z,62.82
2022-09-20T22:54:10.338Z,63.30
2022-09-20T22:56:41.383Z,64.15
2022-09-20T22:59:12.223Z,63.06
2022-09-20T23:01:43.187Z,62.57
2022-09-20T23:04:14.059Z,62.99
2022-09-20T23:06:44.835Z,63.18
2022-09-20T23:09:15.602Z,63.20
2022-09-20T23:11:45.750Z,63.16
2022-09-20T23:14:17.328Z,63.55
2022-09-20T23:16:46.109Z,63.40
2022-09-20T23:19:15.532Z,63.31
2022-09-20T23:21:44.747Z,62.89
2022-09-20T23:24:15.090Z,63.69
2022-09-20T23:26:45.318Z,63.19
2022-09-20T23:29:15.969Z,63.03
2022-09-20T23:31:47.120Z,63.29
2022-09-20T23:34:17.225Z,63.30
2022-09-20T23:36:46.341Z,62.73
2022-09-20T23:39:15.451Z,62.98
2022-09-20T23:41:50.001Z,62.72
2022-09-20T23:44:18.874Z,62.80
2022-09-20T23:46:46.856Z,62.72
2022-09-20T23:49:14.900Z,63.30
2022-09-20T23:51:42.939Z,62.69
2022-09-20T23:54:10.918Z,62.72
2022-09-20T23:56:40.161Z,63.12
2022-09-20T23:59:09.463Z,62.44
